Time;durP1;ratioP1;P1;durP2;ratioP2;P2;SDS_P1;SDS_P2;PMS_P1;PMS_P2;Temp;Humidity;BMP_temperature;BMP_pressure;BME280_temperature;BME280_humidity;BME280_pressure;Samples;Min_cycle;Max_cycle;Signal;HPM_P1;HPM_P2
2023/06/03 00:00:12;;;;;;;8.35;4.50;;;;;;;17.75;93.22;100042.47;4934583;29;20023;-68
2023/06/03 00:02:37;;;;;;;8.82;4.70;;;;;;;17.74;93.42;100049.44;4934727;29;20090;-68
2023/06/03 00:05:03;;;;;;;8.48;4.72;;;;;;;17.62;93.75;100037.25;4934891;29;20028;-70
2023/06/03 00:07:29;;;;;;;7.10;4.55;;;;;;;17.70;93.65;100050.31;4934596;29;20024;-67
2023/06/03 00:09:54;;;;;;;7.32;4.40;;;;;;;17.59;93.89;100039.84;4934499;29;20139;-71
2023/06/03 00:12:20;;;;;;;7.95;4.68;;;;;;;17.55;94.49;100045.94;4934356;29;20036;-68
2023/06/03 00:14:46;;;;;;;10.10;4.82;;;;;;;17.57;94.36;100038.09;4933968;29;20034;-68
2023/06/03 00:17:12;;;;;;;7.32;4.40;;;;;;;17.53;93.27;100011.13;4934443;29;20027;-72
2023/06/03 00:19:40;;;;;;;10.23;5.05;;;;;;;17.79;92.29;100033.78;4934414;29;20410;-66
2023/06/03 00:22:06;;;;;;;6.90;4.63;;;;;;;17.87;91.85;100029.44;4934576;29;20043;-66
2023/06/03 00:24:32;;;;;;;7.90;4.45;;;;;;;17.96;92.38;100033.81;4934125;29;20744;-67
2023/06/03 00:26:58;;;;;;;7.65;4.60;;;;;;;18.04;92.40;100034.66;4934447;29;20028;-68
2023/06/03 00:29:25;;;;;;;7.10;4.65;;;;;;;17.96;93.37;100018.16;4934381;29;20035;-68
2023/06/03 00:31:51;;;;;;;7.85;5.00;;;;;;;17.68;93.84;99981.53;4934294;29;20122;-68
2023/06/03 00:34:17;;;;;;;7.18;4.75;;;;;;;17.28;94.64;99939.78;4934079;29;20043;-68
2023/06/03 00:36:42;;;;;;;9.15;4.53;;;;;;;17.73;95.71;100031.16;4934271;29;20498;-72
2023/06/03 00:39:08;;;;;;;7.97;4.85;;;;;;;17.89;95.96;100042.47;4934228;29;20108;-68
2023/06/03 00:41:34;;;;;;;8.85;4.90;;;;;;;17.98;96.70;100036.41;4934187;29;20110;-68
2023/06/03 00:44:00;;;;;;;8.02;4.65;;;;;;;17.91;96.37;100009.41;4934260;29;20115;-68
2023/06/03 00:46:26;;;;;;;6.53;5.00;;;;;;;18.19;94.79;100038.16;4934420;29;20497;-68
2023/06/03 00:48:52;;;;;;;11.15;4.78;;;;;;;18.04;94.90;100023.34;4934233;29;20035;-73
2023/06/03 00:51:18;;;;;;;8.70;5.13;;;;;;;18.05;95.76;100036.41;4933842;29;20047;-66
2023/06/03 00:53:45;;;;;;;10.30;5.22;;;;;;;18.00;95.23;100030.31;4934155;29;20042;-68
2023/06/03 00:56:12;;;;;;;8.23;5.05;;;;;;;17.97;95.93;100027.72;4933583;29;20466;-67
2023/06/03 00:58:37;;;;;;;9.00;5.47;;;;;;;17.87;95.91;100023.31;4933877;29;20059;-67
2023/06/03 01:01:03;;;;;;;9.48;5.07;;;;;;;17.71;95.98;100032.91;4933798;29;20074;-66
2023/06/03 01:03:28;;;;;;;8.13;5.03;;;;;;;17.47;96.62;100024.19;4933838;29;20505;-69
2023/06/03 01:06:05;;;;;;;9.18;5.35;;;;;;;16.68;96.90;99903.16;4933469;29;20047;-68
2023/06/03 01:08:39;;;;;;;7.22;5.10;;;;;;;17.28;96.91;100031.09;4933555;29;20482;-67
2023/06/03 01:11:12;;;;;;;8.80;4.65;;;;;;;17.25;96.32;100031.09;4933635;29;20020;-71
2023/06/03 01:13:47;;;;;;;8.55;4.38;;;;;;;17.17;96.21;100030.19;4933358;29;20118;-67
2023/06/03 01:16:15;;;;;;;8.80;4.82;;;;;;;17.17;96.67;100032.81;4933483;29;20031;-67
2023/06/03 01:18:44;;;;;;;7.22;4.70;;;;;;;17.17;96.46;100031.09;4933237;29;20494;-67
2023/06/03 01:21:12;;;;;;;8.73;5.35;;;;;;;17.13;97.08;100038.03;4933611;29;20056;-68
2023/06/03 01:23:43;;;;;;;9.98;5.18;;;;;;;16.95;97.29;100017.97;4933467;29;20032;-67
2023/06/03 01:26:09;;;;;;;10.43;4.95;;;;;;;16.81;97.59;100014.41;4932541;29;20114;-66
2023/06/03 01:28:35;;;;;;;6.78;4.80;;;;;;;16.66;97.65;100013.47;4911976;29;20267;-67
2023/06/03 01:31:02;;;;;;;12.10;4.90;;;;;;;16.79;98.09;100039.59;4911796;29;20055;-68
2023/06/03 01:33:29;;;;;;;9.73;5.20;;;;;;;16.69;98.54;100030.84;4911783;29;20044;-67
2023/06/03 01:35:57;;;;;;;11.20;5.40;;;;;;;16.66;99.27;100034.31;4911905;29;20032;-68
2023/06/03 01:38:23;;;;;;;9.95;4.63;;;;;;;16.64;100.00;100022.16;4911838;29;20426;-67
2023/06/03 01:40:48;;;;;;;9.35;5.18;;;;;;;16.61;99.94;100017.78;4911897;29;20036;-68
2023/06/03 01:43:14;;;;;;;7.70;5.20;;;;;;;16.57;99.57;100010.81;4911813;29;20067;-67
2023/06/03 01:45:40;;;;;;;10.95;5.30;;;;;;;16.60;99.96;100018.66;4911685;29;20498;-67
2023/06/03 01:48:05;;;;;;;7.35;5.13;;;;;;;16.57;100.00;100015.16;4911898;29;20434;-71
2023/06/03 01:50:31;;;;;;;7.97;4.88;;;;;;;16.54;100.00;100012.56;4911825;29;20036;-66
2023/06/03 01:52:56;;;;;;;12.02;5.07;;;;;;;16.41;100.00;100015.09;4911709;29;20462;-68
2023/06/03 01:55:22;;;;;;;9.68;5.10;;;;;;;16.40;100.00;100021.16;4911889;29;20513;-67
2023/06/03 01:57:47;;;;;;;7.30;5.10;;;;;;;16.29;100.00;100015.00;4911645;29;20434;-71
2023/06/03 02:00:15;;;;;;;9.23;4.85;;;;;;;16.33;100.00;100028.03;4928013;29;20038;-68
2023/06/03 02:02:40;;;;;;;6.85;4.45;;;;;;;16.19;100.00;99998.44;4933179;29;20040;-68
2023/06/03 02:05:06;;;;;;;7.88;4.72;;;;;;;16.29;100.00;100018.47;4933151;29;20023;-68
2023/06/03 02:07:31;;;;;;;7.30;4.82;;;;;;;16.31;100.00;100019.38;4933143;29;20059;-67
2023/06/03 02:09:58;;;;;;;6.68;4.72;;;;;;;16.31;100.00;100008.94;4915969;29;20050;-71
2023/06/03 02:12:23;;;;;;;8.40;4.55;;;;;;;16.25;100.00;100011.50;4933134;29;20028;-68
2023/06/03 02:14:53;;;;;;;8.15;4.97;;;;;;;16.12;100.00;99996.66;4932721;29;20059;-68
2023/06/03 02:17:24;;;;;;;7.38;4.72;;;;;;;15.77;100.00;99946.06;4933507;29;20043;-68
2023/06/03 02:19:50;;;;;;;14.25;4.88;;;;;;;16.11;100.00;100005.34;4933184;29;20032;-68
2023/06/03 02:22:16;;;;;;;7.75;4.55;;;;;;;16.16;100.00;100021.84;4933173;29;20060;-74
2023/06/03 02:24:41;;;;;;;9.80;5.25;;;;;;;15.69;100.00;99946.00;4926967;29;20487;-66
2023/06/03 02:27:07;;;;;;;8.80;4.95;;;;;;;16.24;100.00;100025.41;4896430;29;20092;-72
2023/06/03 02:29:32;;;;;;;8.65;4.50;;;;;;;16.06;100.00;99994.00;4913872;29;20067;-67
2023/06/03 02:31:58;;;;;;;9.35;5.10;;;;;;;16.21;100.00;100034.91;4914174;29;20039;-68
2023/06/03 02:34:24;;;;;;;9.70;4.93;;;;;;;16.13;100.00;100034.88;4913863;29;20028;-66
2023/06/03 02:36:50;;;;;;;9.20;4.68;;;;;;;16.21;100.00;100032.31;4915259;29;20040;-70
2023/06/03 02:39:16;;;;;;;7.90;4.90;;;;;;;16.08;100.00;100005.31;4917127;29;20403;-67
2023/06/03 02:41:43;;;;;;;11.63;5.65;;;;;;;16.21;100.00;100014.09;4917078;29;20032;-69
2023/06/03 02:44:09;;;;;;;8.60;5.25;;;;;;;15.72;100.00;99921.72;4917133;29;20039;-67
2023/06/03 02:46:34;;;;;;;9.15;5.30;;;;;;;16.38;100.00;100048.06;4900365;29;20035;-68
2023/06/03 02:49:03;;;;;;;8.07;5.38;;;;;;;16.53;100.00;100044.69;4917097;29;20039;-67
2023/06/03 02:51:29;;;;;;;9.40;5.95;;;;;;;16.58;100.00;100046.44;4917250;29;20043;-70
2023/06/03 02:53:54;;;;;;;9.82;5.85;;;;;;;16.58;100.00;100049.03;4916949;29;20044;-70
2023/06/03 02:56:22;;;;;;;7.50;5.70;;;;;;;16.61;100.00;100056.00;4916738;29;20084;-67
2023/06/03 02:58:48;;;;;;;11.50;5.78;;;;;;;16.55;100.00;100050.75;4916769;29;20130;-68
2023/06/03 03:01:14;;;;;;;9.95;5.05;;;;;;;16.62;98.33;100061.25;4916753;29;20491;-68
2023/06/03 03:03:40;;;;;;;9.80;5.07;;;;;;;16.59;97.47;100052.53;4916920;29;20032;-68
2023/06/03 03:06:06;;;;;;;9.90;5.43;;;;;;;16.49;97.25;100059.41;4916947;29;20032;-70
2023/06/03 03:08:35;;;;;;;8.25;5.13;;;;;;;16.55;97.16;100063.78;4917025;29;20071;-66
2023/06/03 03:11:00;;;;;;;10.18;5.85;;;;;;;16.44;96.72;100066.34;4916692;29;20039;-66
2023/06/03 03:13:26;;;;;;;13.18;5.90;;;;;;;16.27;97.15;100067.06;4916605;29;20483;-67
2023/06/03 03:15:52;;;;;;;10.68;5.78;;;;;;;16.12;98.15;100060.03;4916660;29;20032;-67
2023/06/03 03:18:17;;;;;;;12.13;5.80;;;;;;;16.12;98.30;100070.44;4916822;29;20028;-67
2023/06/03 03:20:43;;;;;;;13.15;6.55;;;;;;;15.99;98.42;100053.84;4916562;29;20032;-68
2023/06/03 03:23:12;;;;;;;12.52;6.25;;;;;;;15.82;98.96;100034.63;4916729;29;20107;-68
2023/06/03 03:25:38;;;;;;;10.05;5.70;;;;;;;15.46;100.00;99992.63;4916261;29;20036;-68
2023/06/03 03:28:03;;;;;;;13.18;6.10;;;;;;;15.68;100.00;100047.50;4916445;29;20032;-70
2023/06/03 03:30:29;;;;;;;13.65;5.85;;;;;;;15.68;100.00;100055.28;4916132;29;20059;-73
2023/06/03 03:32:58;;;;;;;13.57;5.97;;;;;;;15.79;100.00;100050.19;4916144;29;20088;-67
2023/06/03 03:35:24;;;;;;;13.90;6.88;;;;;;;15.82;100.00;100058.91;4916143;29;20024;-68
2023/06/03 03:38:04;;;;;;;11.88;5.90;;;;;;;15.62;100.00;100011.84;4916737;29;20119;-67
2023/06/03 03:40:32;;;;;;;13.30;6.05;;;;;;;15.96;100.00;100066.88;4916295;29;20036;-68
2023/06/03 03:42:59;;;;;;;13.23;6.90;;;;;;;16.01;100.00;100064.28;4916053;29;20495;-68
2023/06/03 03:45:34;;;;;;;15.25;6.10;;;;;;;16.12;100.00;100066.97;4916434;29;20035;-66
2023/06/03 03:48:05;;;;;;;12.43;6.10;;;;;;;15.75;100.00;99983.34;4915307;29;20107;-68
2023/06/03 03:50:48;;;;;;;11.35;6.28;;;;;;;15.92;100.00;100075.47;4899096;29;20096;-68
2023/06/03 03:53:21;;;;;;;11.35;6.38;;;;;;;15.51;100.00;100060.31;4915969;29;20043;-67
2023/06/03 03:55:51;;;;;;;12.93;6.22;;;;;;;15.60;100.00;100068.25;4915911;29;20448;-66
2023/06/03 03:58:23;;;;;;;11.35;6.10;;;;;;;15.66;100.00;100073.50;4915813;29;20079;-67
2023/06/03 04:00:50;;;;;;;11.60;6.35;;;;;;;15.50;100.00;100074.19;4916028;29;20411;-67
2023/06/03 04:03:17;;;;;;;11.48;6.60;;;;;;;15.30;100.00;100072.25;4915536;29;20028;-65
2023/06/03 04:05:47;;;;;;;10.40;6.32;;;;;;;15.48;100.00;100076.78;4915790;29;20036;-68
2023/06/03 04:08:38;;;;;;;12.95;6.22;;;;;;;15.77;100.00;100081.38;4915615;29;20484;-66
2023/06/03 04:11:04;;;;;;;11.57;5.97;;;;;;;16.06;100.00;100087.75;4915749;29;20092;-66
2023/06/03 04:13:35;;;;;;;10.90;6.13;;;;;;;16.17;100.00;100070.47;4915186;29;20487;-68
2023/06/03 04:16:04;;;;;;;8.52;6.03;;;;;;;16.16;100.00;100063.53;4915916;29;20054;-67
2023/06/03 04:18:30;;;;;;;17.15;7.32;;;;;;;15.93;100.00;100006.09;4898885;29;20040;-68
2023/06/03 04:20:56;;;;;;;10.93;6.07;;;;;;;16.51;100.00;100083.75;4881974;29;20419;-72
2023/06/03 04:23:22;;;;;;;9.95;6.88;;;;;;;16.52;100.00;100090.69;4915571;29;20028;-65
2023/06/03 04:25:49;;;;;;;10.75;6.20;;;;;;;16.15;100.00;100018.38;4915265;29;20032;-67
2023/06/03 04:28:14;;;;;;;11.80;6.57;;;;;;;16.45;100.00;100083.72;4897961;29;20460;-67
2023/06/03 04:30:39;;;;;;;9.80;7.05;;;;;;;16.27;100.00;100087.91;4915520;29;20075;-70
2023/06/03 04:33:06;;;;;;;9.98;6.95;;;;;;;16.40;100.00;100088.91;4915061;29;20039;-66
2023/06/03 04:35:32;;;;;;;9.10;5.70;;;;;;;16.38;100.00;100081.94;4915119;29;20052;-66
2023/06/03 04:37:58;;;;;;;10.15;6.22;;;;;;;16.52;100.00;100082.88;4915301;29;20471;-67
2023/06/03 04:40:24;;;;;;;12.43;6.35;;;;;;;16.50;100.00;100087.22;4914986;29;20032;-68
2023/06/03 04:42:51;;;;;;;11.18;6.40;;;;;;;16.53;100.00;100087.22;4914830;29;20092;-66
2023/06/03 04:45:16;;;;;;;9.35;6.68;;;;;;;16.45;100.00;100081.13;4915195;29;20028;-66
2023/06/03 04:47:42;;;;;;;12.68;6.95;;;;;;;16.61;100.00;100092.47;4915074;29;20032;-67
2023/06/03 04:50:09;;;;;;;9.73;7.05;;;;;;;16.62;100.00;100073.38;4915126;29;20020;-69
2023/06/03 04:52:35;;;;;;;13.73;6.75;;;;;;;16.84;100.00;100086.56;4914841;29;20024;-67
2023/06/03 04:55:01;;;;;;;10.55;6.63;;;;;;;16.99;100.00;100089.25;4915057;29;20031;-66
2023/06/03 04:57:27;;;;;;;11.70;7.32;;;;;;;17.07;100.00;100078.84;4914857;29;20060;-69
2023/06/03 04:59:52;;;;;;;11.18;6.90;;;;;;;17.04;100.00;100084.06;4914863;29;20050;-68
2023/06/03 05:02:20;;;;;;;14.60;7.13;;;;;;;17.13;100.00;100081.47;4914880;29;20039;-70
2023/06/03 05:04:46;;;;;;;9.52;6.45;;;;;;;17.10;100.00;100074.53;4914706;29;20035;-68
2023/06/03 05:07:12;;;;;;;10.27;6.70;;;;;;;17.18;100.00;100082.38;4914838;29;20039;-67
2023/06/03 05:09:37;;;;;;;9.63;6.93;;;;;;;17.29;100.00;100098.91;4914882;29;20107;-67
2023/06/03 05:12:03;;;;;;;11.32;6.68;;;;;;;17.36;100.00;100106.78;4914670;29;20464;-69
2023/06/03 05:14:28;;;;;;;17.75;8.38;;;;;;;17.49;100.00;100108.56;4896559;29;20583;-67
2023/06/03 05:16:54;;;;;;;11.90;7.10;;;;;;;17.58;100.00;100113.81;4914480;29;20039;-68
2023/06/03 05:19:19;;;;;;;12.25;7.25;;;;;;;17.63;100.00;100113.81;4897345;29;20055;-66
2023/06/03 05:21:45;;;;;;;9.50;7.18;;;;;;;17.67;100.00;100119.91;4914631;29;20120;-69
2023/06/03 05:24:11;;;;;;;13.10;7.60;;;;;;;17.68;100.00;100124.28;4897369;29;20039;-66
2023/06/03 05:26:36;;;;;;;8.80;7.40;;;;;;;17.57;100.00;100114.69;4914439;29;20035;-67
2023/06/03 05:29:01;;;;;;;11.80;7.60;;;;;;;17.59;100.00;100106.84;4914571;29;20028;-68
2023/06/03 05:31:27;;;;;;;11.02;6.85;;;;;;;17.32;100.00;100045.91;4914318;29;20035;-71
2023/06/03 05:33:52;;;;;;;11.07;7.20;;;;;;;17.55;100.00;100076.41;4914305;29;20464;-68
2023/06/03 05:36:18;;;;;;;13.00;6.93;;;;;;;17.99;100.00;100133.03;4914554;29;20033;-67
2023/06/03 05:38:43;;;;;;;12.85;7.20;;;;;;;18.08;100.00;100126.97;4914165;29;20452;-68
2023/06/03 05:41:08;;;;;;;10.70;6.50;;;;;;;17.79;100.00;100091.22;4914296;29;20571;-66
2023/06/03 05:43:34;;;;;;;10.80;7.03;;;;;;;18.21;100.00;100127.84;4914403;29;20043;-68
2023/06/03 05:45:59;;;;;;;11.55;6.82;;;;;;;18.17;100.00;100119.16;4914212;29;20032;-68
2023/06/03 05:48:25;;;;;;;10.93;6.35;;;;;;;18.06;100.00;100081.69;4914305;29;20067;-67
2023/06/03 05:50:52;;;;;;;11.88;7.43;;;;;;;18.48;100.00;100136.53;4914409;29;20032;-68
2023/06/03 05:53:24;;;;;;;9.57;6.53;;;;;;;18.50;97.92;100140.91;4897090;29;20028;-68
2023/06/03 05:55:50;;;;;;;13.82;7.53;;;;;;;18.60;100.00;100141.75;4914151;29;20569;-67
2023/06/03 05:58:17;;;;;;;12.00;8.18;;;;;;;18.72;100.00;100148.72;4914300;29;20104;-68
2023/06/03 06:00:42;;;;;;;12.80;6.43;;;;;;;18.87;100.00;100140.84;4914079;29;20040;-68
2023/06/03 06:03:08;;;;;;;12.57;6.75;;;;;;;18.93;100.00;100142.63;4914158;29;20020;-66
2023/06/03 06:05:33;;;;;;;9.02;6.18;;;;;;;19.09;96.83;100146.06;4913988;29;20032;-68
2023/06/03 06:07:58;;;;;;;10.30;6.20;;;;;;;19.19;96.91;100142.53;4913942;29;20034;-66
2023/06/03 06:10:24;;;;;;;11.52;6.70;;;;;;;19.31;97.94;100141.59;4913868;29;20051;-67
2023/06/03 06:12:49;;;;;;;9.48;6.50;;;;;;;19.36;97.86;100136.34;4916864;29;20036;-71
2023/06/03 06:15:15;;;;;;;11.13;6.53;;;;;;;19.27;96.77;100144.25;4917616;29;20059;-69
2023/06/03 06:17:43;;;;;;;11.25;6.18;;;;;;;19.30;96.60;100123.28;4917647;29;20059;-68
2023/06/03 06:20:10;;;;;;;9.10;6.22;;;;;;;19.45;94.61;100123.22;4917470;29;20036;-67
2023/06/03 06:22:36;;;;;;;10.25;6.90;;;;;;;19.35;94.43;100083.13;4917742;29;20062;-67
2023/06/03 06:25:06;;;;;;;11.30;6.18;;;;;;;19.79;96.15;100125.63;4917581;29;20032;-67
2023/06/03 06:27:31;;;;;;;;;;;;;;;19.96;94.95;100127.28;4918148;29;20072;-72
2023/06/03 06:29:58;;;;;;;46.38;11.52;;;;;;;19.99;92.83;100120.28;4917476;29;20362;-74
2023/06/03 06:32:25;;;;;;;10.85;6.53;;;;;;;20.00;94.15;100132.50;4917574;29;20028;-69
2023/06/03 06:34:51;;;;;;;14.85;6.32;;;;;;;20.09;93.19;100133.31;4917407;29;20032;-68
2023/06/03 06:37:20;;;;;;;9.45;6.30;;;;;;;19.79;95.42;100068.00;4917226;29;20020;-66
2023/06/03 06:39:53;;;;;;;58.95;13.77;;;;;;;20.15;96.26;100133.25;4917716;29;20087;-71
2023/06/03 06:42:33;;;;;;;18.63;6.50;;;;;;;20.33;91.08;100122.63;4917152;29;20062;-67
2023/06/03 06:45:08;;;;;;;8.65;5.95;;;;;;;20.52;88.33;100138.19;4917706;29;20495;-67
2023/06/03 06:47:36;;;;;;;11.73;5.70;;;;;;;20.66;86.99;100141.56;4916949;29;20020;-70
2023/06/03 06:50:07;;;;;;;10.88;6.07;;;;;;;20.68;85.73;100141.53;4900011;29;20055;-71
2023/06/03 06:52:34;;;;;;;9.90;5.47;;;;;;;20.68;83.73;100150.25;4917264;29;20055;-71
2023/06/03 06:55:00;;;;;;;8.18;5.57;;;;;;;20.72;83.98;100150.28;4916912;29;20028;-67
2023/06/03 06:57:28;;;;;;;12.63;6.10;;;;;;;20.82;84.88;100147.56;4916998;29;20052;-68
2023/06/03 06:59:54;;;;;;;10.73;5.30;;;;;;;20.82;82.42;100146.66;4917211;29;20509;-69
2023/06/03 07:02:20;;;;;;;9.68;5.97;;;;;;;20.57;81.02;100075.22;4916636;29;20028;-68
2023/06/03 07:04:50;;;;;;;8.52;5.43;;;;;;;21.12;81.65;100148.09;4917110;29;20032;-67
2023/06/03 07:07:15;;;;;;;9.90;6.63;;;;;;;21.20;79.68;100132.25;4916842;29;20462;-72
2023/06/03 07:09:41;;;;;;;10.30;5.95;;;;;;;21.43;82.08;100138.97;4917014;29;20032;-72
2023/06/03 07:12:08;;;;;;;11.05;6.15;;;;;;;21.41;80.06;100123.22;4916631;29;20033;-68
2023/06/03 07:14:33;;;;;;;10.55;5.93;;;;;;;21.48;77.26;100147.66;4916592;29;20032;-71
2023/06/03 07:16:59;;;;;;;9.30;5.50;;;;;;;21.58;75.79;100136.19;4916307;29;20039;-68
2023/06/03 07:19:37;;;;;;;8.60;4.97;;;;;;;21.75;73.51;100140.31;4916819;29;20032;-68
2023/06/03 07:22:05;;;;;;;8.68;5.40;;;;;;;21.96;73.40;100140.00;4916650;29;20024;-68
2023/06/03 07:24:32;;;;;;;8.63;5.07;;;;;;;21.93;74.82;100142.69;4915350;29;20047;-67
2023/06/03 07:26:59;;;;;;;11.52;5.25;;;;;;;21.55;73.00;100094.16;4899365;29;20040;-67
2023/06/03 07:29:25;;;;;;;10.75;4.65;;;;;;;21.91;71.26;100136.56;4920247;29;20179;-70
2023/06/03 07:31:52;;;;;;;9.20;4.88;;;;;;;22.05;69.69;100131.09;4935537;29;20038;-68
2023/06/03 07:34:22;;;;;;;7.20;4.43;;;;;;;22.12;69.65;100121.34;4935421;29;20039;-68
2023/06/03 07:36:50;;;;;;;;;;;;;;;22.29;69.58;100137.72;4936128;29;20241;-67
2023/06/03 07:39:19;;;;;;;6.10;4.00;;;;;;;22.27;71.04;100143.91;4935421;29;19919;-68
2023/06/03 07:41:50;;;;;;;6.68;4.60;;;;;;;22.11;69.40;100133.63;4917917;29;20048;-67
2023/06/03 07:44:37;;;;;;;9.88;4.80;;;;;;;22.40;68.36;100148.06;4901419;29;20042;-68
2023/06/03 07:47:03;;;;;;;7.30;4.80;;;;;;;22.45;72.89;100143.63;4842341;29;20041;-67
2023/06/03 07:49:30;;;;;;;6.72;4.40;;;;;;;22.56;70.05;100147.81;4842545;29;20072;-68
2023/06/03 07:51:55;;;;;;;9.13;5.07;;;;;;;22.49;70.40;100143.56;4857734;29;20129;-70
2023/06/03 07:54:20;;;;;;;5.78;4.43;;;;;;;22.52;73.90;100138.22;4857250;29;20065;-68
2023/06/03 07:56:47;;;;;;;8.80;4.50;;;;;;;22.65;71.35;100144.16;4857456;29;20472;-67
2023/06/03 07:59:14;;;;;;;12.43;5.10;;;;;;;22.83;68.05;100137.66;4857598;29;20115;-68
2023/06/03 08:01:40;;;;;;;11.88;4.93;;;;;;;22.98;67.17;100147.03;4857409;29;20044;-67
2023/06/03 08:04:28;;;;;;;10.20;4.57;;;;;;;23.21;68.75;100155.38;4857463;29;20420;-69
2023/06/03 08:06:55;;;;;;;10.93;5.03;;;;;;;23.36;69.58;100154.19;4857146;29;20030;-67
2023/06/03 08:09:29;;;;;;;6.57;4.55;;;;;;;23.35;68.50;100151.59;4857383;29;20041;-68
2023/06/03 08:11:56;;;;;;;8.32;5.80;;;;;;;23.38;69.13;100141.00;4857264;29;20069;-73
2023/06/03 08:14:23;;;;;;;11.07;5.75;;;;;;;23.38;70.38;100136.59;4857148;29;20044;-68
2023/06/03 08:16:49;;;;;;;7.68;5.00;;;;;;;23.44;68.20;100151.41;4841647;29;20182;-68
2023/06/03 08:19:16;;;;;;;13.60;5.10;;;;;;;23.38;69.58;100156.81;4857134;29;20448;-70
2023/06/03 08:21:44;;;;;;;9.93;4.45;;;;;;;23.00;67.18;100095.22;4857155;29;20061;-68
2023/06/03 08:24:10;;;;;;;9.75;5.25;;;;;;;23.38;71.76;100139.22;4896455;29;20055;-70
2023/06/03 08:26:36;;;;;;;8.52;5.38;;;;;;;23.41;70.90;100138.28;4934628;29;20031;-67
2023/06/03 08:29:03;;;;;;;6.70;4.75;;;;;;;23.40;68.37;100150.59;4934369;29;20032;-68
2023/06/03 08:31:32;;;;;;;8.48;4.47;;;;;;;23.01;70.35;100075.91;4934592;29;20386;-67
2023/06/03 08:33:57;;;;;;;7.65;5.03;;;;;;;23.57;71.95;100152.00;4933773;29;20039;-67
2023/06/03 08:36:23;;;;;;;6.53;4.85;;;;;;;23.60;70.86;100146.66;4934504;29;20028;-70
2023/06/03 08:38:48;;;;;;;8.50;4.82;;;;;;;23.68;70.89;100159.69;4934153;29;20055;-70
2023/06/03 08:41:14;;;;;;;12.80;5.32;;;;;;;23.69;70.93;100154.38;4934114;29;20032;-66
2023/06/03 08:43:51;;;;;;;6.55;4.82;;;;;;;23.69;67.94;100157.00;4934078;29;20554;-67
2023/06/03 08:46:23;;;;;;;6.93;4.95;;;;;;;23.59;71.00;100118.59;4900762;29;20118;-68
2023/06/03 08:49:07;;;;;;;6.93;4.60;;;;;;;23.99;69.33;100149.31;4934141;29;20111;-66
2023/06/03 08:51:42;;;;;;;6.88;4.38;;;;;;;24.11;67.70;100142.88;4933944;29;20051;-68
2023/06/03 08:54:13;;;;;;;7.70;4.78;;;;;;;24.23;67.90;100152.28;4933721;29;20434;-70
2023/06/03 08:56:44;;;;;;;6.35;4.75;;;;;;;23.96;69.34;100083.47;4933993;29;20059;-66
2023/06/03 08:59:15;;;;;;;8.25;4.35;;;;;;;24.42;68.67;100133.34;4916858;29;20498;-70
2023/06/03 09:01:44;;;;;;;8.98;4.68;;;;;;;24.51;69.81;100147.16;4932599;29;20035;-69
2023/06/03 09:04:13;;;;;;;6.53;4.88;;;;;;;24.65;65.42;100143.31;4934149;29;20483;-67
2023/06/03 09:06:45;;;;;;;6.05;4.38;;;;;;;24.89;68.20;100149.72;4900081;29;20046;-68
2023/06/03 09:09:12;;;;;;;7.28;4.57;;;;;;;25.08;65.23;100149.19;4933866;29;20070;-67
2023/06/03 09:11:39;;;;;;;6.60;4.40;;;;;;;25.16;65.23;100152.47;4933732;29;20031;-68
2023/06/03 09:14:04;;;;;;;9.07;4.70;;;;;;;24.93;65.85;100102.97;4933548;29;20028;-69
2023/06/03 09:16:32;;;;;;;7.82;4.50;;;;;;;25.22;67.25;100140.88;4933482;29;20038;-67
2023/06/03 09:18:57;;;;;;;8.35;4.63;;;;;;;25.22;64.96;100135.59;4933455;29;20067;-68
2023/06/03 09:21:23;;;;;;;6.93;4.20;;;;;;;25.34;66.04;100140.50;4933665;29;20059;-68
2023/06/03 09:23:51;;;;;;;7.28;4.53;;;;;;;25.34;62.76;100138.72;4933250;29;20083;-68
2023/06/03 09:26:17;;;;;;;6.65;4.10;;;;;;;25.43;66.06;100148.19;4933236;29;20035;-68
2023/06/03 09:28:44;;;;;;;6.03;4.60;;;;;;;25.10;64.95;100081.34;4933644;29;20070;-68
2023/06/03 09:31:09;;;;;;;9.25;4.43;;;;;;;25.44;66.72;100136.72;4933379;29;20086;-68
2023/06/03 09:33:35;;;;;;;7.22;4.45;;;;;;;25.25;63.78;100099.38;4933522;29;20467;-68
2023/06/03 09:36:07;;;;;;;7.93;4.90;;;;;;;25.30;65.07;100100.09;4933319;29;20028;-73
2023/06/03 09:39:02;;;;;;;6.82;4.50;;;;;;;25.75;61.87;100148.13;4933162;29;20111;-68
2023/06/03 09:41:28;;;;;;;11.15;4.72;;;;;;;25.83;61.58;100146.09;4933594;29;20024;-74
2023/06/03 09:43:55;;;;;;;50.28;43.25;;;;;;;25.96;63.67;100147.44;4933282;29;20094;-68
2023/06/03 09:46:21;;;;;;;11.13;8.43;;;;;;;25.74;63.93;100135.81;4934172;29;20030;-69
2023/06/03 09:48:47;;;;;;;11.80;8.80;;;;;;;25.80;62.40;100136.50;4919068;29;20043;-68
2023/06/03 09:51:32;;;;;;;38.45;31.02;;;;;;;25.99;63.15;100151.78;4937359;29;20459;-71
2023/06/03 09:54:10;;;;;;;33.55;26.80;;;;;;;26.05;66.28;100162.16;4896741;29;20084;-69
2023/06/03 09:56:36;;;;;;;30.75;22.23;;;;;;;25.89;62.86;100115.97;4865367;29;20139;-68
2023/06/03 09:59:23;;;;;;;37.67;28.13;;;;;;;25.96;61.85;100118.34;4880906;29;20091;-69
2023/06/03 10:01:51;;;;;;;183.73;82.10;;;;;;;26.19;60.46;100160.88;4896689;29;20407;-68
2023/06/03 10:04:36;;;;;;;152.25;114.25;;;;;;;26.01;60.99;100160.53;4896638;29;20076;-68
2023/06/03 10:07:18;;;;;;;162.73;34.50;;;;;;;25.68;59.52;100176.53;4896791;29;20518;-70
2023/06/03 10:09:45;;;;;;;23.40;13.25;;;;;;;25.46;59.31;100171.00;4896225;29;20049;-68
2023/06/03 10:12:32;;;;;;;44.58;28.25;;;;;;;25.43;60.50;100163.19;4896666;29;20063;-69
2023/06/03 10:15:00;;;;;;;17.80;12.77;;;;;;;25.47;63.64;100171.00;4896556;29;20052;-71
2023/06/03 10:17:27;;;;;;;116.75;87.13;;;;;;;25.58;60.05;100172.44;4896472;29;20056;-68
2023/06/03 10:19:53;;;;;;;13.68;9.35;;;;;;;25.71;62.10;100175.56;4896509;29;20550;-68
2023/06/03 10:22:19;;;;;;;21.95;15.10;;;;;;;25.81;61.01;100169.09;4896178;29;20157;-67
2023/06/03 10:24:47;;;;;;;16.92;10.60;;;;;;;25.70;60.36;100155.34;4912864;29;20040;-68
2023/06/03 10:27:14;;;;;;;13.95;8.10;;;;;;;25.89;60.65;100150.34;4922366;29;20024;-70
2023/06/03 10:29:40;;;;;;;11.43;7.68;;;;;;;25.63;58.68;100105.31;4915448;29;20483;-70
2023/06/03 10:32:07;;;;;;;15.70;6.18;;;;;;;26.07;57.85;100152.44;4917711;29;20054;-68
2023/06/03 10:34:44;;;;;;;10.75;4.60;;;;;;;26.02;55.96;100124.34;4910813;29;20092;-69
2023/06/03 10:37:12;;;;;;;11.52;6.20;;;;;;;25.92;57.44;100150.22;4898698;29;20028;-68
2023/06/03 10:39:42;;;;;;;8.82;4.85;;;;;;;25.84;61.86;100174.28;4850130;29;20163;-70
2023/06/03 10:42:12;;;;;;;7.45;4.72;;;;;;;25.44;63.16;100115.56;4898494;29;20029;-68
2023/06/03 10:44:37;;;;;;;8.25;4.75;;;;;;;25.94;63.36;100169.56;4898568;29;20036;-69
2023/06/03 10:47:24;;;;;;;8.63;5.43;;;;;;;26.08;57.92;100166.50;4898272;29;20088;-68
2023/06/03 10:50:04;;;;;;;10.27;4.82;;;;;;;26.22;55.42;100174.00;4898238;29;20040;-67
2023/06/03 10:52:52;;;;;;;10.27;4.90;;;;;;;26.42;56.87;100170.72;4880604;29;20476;-69
2023/06/03 10:55:49;;;;;;;8.98;4.22;;;;;;;26.70;55.47;100172.41;4898205;29;20040;-68
2023/06/03 10:58:21;;;;;;;8.52;4.88;;;;;;;26.86;51.77;100172.75;4881006;29;20072;-69
2023/06/03 11:00:55;;;;;;;8.32;4.43;;;;;;;26.81;52.41;100157.03;4898039;29;20033;-71
2023/06/03 11:03:22;;;;;;;8.63;4.43;;;;;;;26.86;52.61;100147.13;4898231;29;20064;-73
2023/06/03 11:05:48;;;;;;;7.05;4.70;;;;;;;26.87;53.84;100122.38;4896627;29;20514;-66
2023/06/03 11:08:34;;;;;;;6.90;4.60;;;;;;;27.27;56.20;100173.03;4897696;29;20084;-68
2023/06/03 11:10:59;;;;;;;9.82;5.00;;;;;;;27.46;54.09;100175.88;4898057;29;20083;-68
2023/06/03 11:13:41;;;;;;;7.70;4.88;;;;;;;27.53;53.86;100172.06;4897774;29;20064;-68
2023/06/03 11:16:06;;;;;;;8.02;4.50;;;;;;;27.53;51.85;100169.44;4897598;29;20464;-69
2023/06/03 11:18:32;;;;;;;11.15;5.15;;;;;;;27.57;54.44;100168.38;4897444;29;20029;-66
2023/06/03 11:20:58;;;;;;;8.30;4.32;;;;;;;27.50;53.37;100176.63;4897727;29;20111;-68
2023/06/03 11:23:40;;;;;;;8.70;4.50;;;;;;;27.46;54.09;100183.84;4897696;29;20044;-69